Abbeville, Georgia
Current Conditions -  °F | °C
As of 9:35 PM on Saturday 20 Dec 2014 (Local Time) from KEZM Reporting Station
Light Rain Light Rain  
Wind Chill: 54°   Ceiling: 1000
Heat Index: 54°   Visibility: 10mi
Dew Point: 54°   Wind: 3mph
Humidity: 100%   Direction: 70°ENE
Pressure: 30.21"   Gusts: NA
Location:  31.99°N, 83.31°W
Report Text: KEZM 210235Z AUTO 07003KT 10SM -RA OVC010 12/12 A3021 RMK AO2 T01220122
Loading
Personal Weather Stations






























Interactive Weather Map New forecast layout! Learn more

10-Day Weather Forecast

Advertisements
Track Severe Weather on mobile